Time,TemperatureF,DewpointF,PressureIn,WindDirection,WindDirectionDegrees,WindSpeedMPH,WindSpeedGustMPH,Humidity,HourlyPrecipIn,Conditions,Clouds,dailyrainin,SoftwareType,DateUTC
2013-03-26 00:00:00,27.0,22.5,30.24,NW,315,2.7,4.0,83,0.00,,,0.00,WUHU216HW,2013-03-26 05:00:00,
2013-03-26 00:05:00,27.0,22.5,30.24,NW,315,1.1,2.7,83,0.00,,,0.00,WUHU216HW,2013-03-26 05:05:00,
2013-03-26 00:10:00,27.0,22.5,30.24,NW,315,2.0,2.7,83,0.00,,,0.00,WUHU216HW,2013-03-26 05:10:00,
2013-03-26 00:15:00,27.0,22.5,30.24,NW,315,1.8,3.1,83,0.00,,,0.00,WUHU216HW,2013-03-26 05:15:00,
2013-03-26 00:20:00,27.0,22.5,30.24,NNW,338,2.5,3.1,83,0.00,,,0.00,WUHU216HW,2013-03-26 05:20:00,
2013-03-26 00:25:00,26.8,22.3,30.24,NW,315,1.6,2.9,83,0.00,,,0.00,WUHU216HW,2013-03-26 05:25:00,
2013-03-26 00:30:00,26.8,22.3,30.24,NW,315,1.6,3.1,83,0.00,,,0.00,WUHU216HW,2013-03-26 05:30:00,
2013-03-26 00:35:00,26.5,22.0,30.24,NW,315,1.8,3.1,83,0.00,,,0.00,WUHU216HW,2013-03-26 05:35:00,
2013-03-26 00:40:00,26.3,21.8,30.25,NNW,338,1.1,2.9,83,0.00,,,0.00,WUHU216HW,2013-03-26 05:40:00,
2013-03-26 00:45:00,26.3,21.8,30.25,NW,315,1.8,2.9,83,0.00,,,0.00,WUHU216HW,2013-03-26 05:45:00,
2013-03-26 00:50:00,26.1,21.3,30.25,NW,315,1.3,2.9,82,0.00,,,0.00,WUHU216HW,2013-03-26 05:50:00,
2013-03-26 00:55:00,26.1,21.3,30.24,WSW,248,2.2,2.5,82,0.00,,,0.00,WUHU216HW,2013-03-26 05:55:00,
2013-03-26 01:00:00,25.7,21.2,30.24,NW,315,3.6,3.6,83,0.00,,,0.00,WUHU216HW,2013-03-26 06:00:00,
2013-03-26 01:05:00,25.9,21.2,30.25,NNW,338,1.1,4.0,82,0.00,,,0.00,WUHU216HW,2013-03-26 06:05:00,
2013-03-26 01:10:00,25.9,21.2,30.25,NNW,338,1.1,4.0,82,0.00,,,0.00,WUHU216HW,2013-03-26 06:10:00,
2013-03-26 01:15:00,25.9,21.2,30.25,NW,315,1.6,2.2,82,0.00,,,0.00,WUHU216HW,2013-03-26 06:15:00,
2013-03-26 01:20:00,25.7,21.0,30.25,NNW,338,0.9,3.4,82,0.00,,,0.00,WUHU216HW,2013-03-26 06:20:00,
2013-03-26 01:25:00,25.6,20.8,30.25,NW,315,2.5,3.4,82,0.00,,,0.00,WUHU216HW,2013-03-26 06:25:00,
2013-03-26 01:30:00,25.6,20.8,30.25,NNW,338,2.5,2.7,82,0.00,,,0.00,WUHU216HW,2013-03-26 06:30:00,
2013-03-26 01:35:00,25.6,20.8,30.25,NW,315,3.4,3.4,82,0.00,,,0.00,WUHU216HW,2013-03-26 06:35:00,
2013-03-26 01:40:00,25.4,20.7,30.25,NNW,338,1.6,3.4,82,0.00,,,0.00,WUHU216HW,2013-03-26 06:40:00,
2013-03-26 01:45:00,25.4,20.7,30.25,NW,315,1.1,2.9,82,0.00,,,0.00,WUHU216HW,2013-03-26 06:45:00,
2013-03-26 01:50:00,25.2,20.8,30.25,WNW,293,1.1,3.1,83,0.00,,,0.00,WUHU216HW,2013-03-26 06:50:00,
2013-03-26 01:55:00,25.0,20.6,30.25,North,0,1.1,4.7,83,0.00,,,0.00,WUHU216HW,2013-03-26 06:55:00,
2013-03-26 02:00:00,25.0,20.6,30.25,NNW,338,1.1,4.7,83,0.00,,,0.00,WUHU216HW,2013-03-26 07:00:00,
2013-03-26 02:05:00,24.8,20.4,30.25,NW,315,2.5,3.4,83,0.00,,,0.00,WUHU216HW,2013-03-26 07:05:00,
2013-03-26 02:10:00,24.8,20.4,30.25,NNW,338,2.7,3.8,83,0.00,,,0.00,WUHU216HW,2013-03-26 07:10:00,
2013-03-26 02:15:00,24.8,20.4,30.25,NW,315,0.7,3.8,83,0.00,,,0.00,WUHU216HW,2013-03-26 07:15:00,
2013-03-26 02:20:00,24.7,20.3,30.25,North,0,1.6,2.7,83,0.00,,,0.00,WUHU216HW,2013-03-26 07:20:00,
2013-03-26 02:25:00,24.7,20.3,30.25,NNW,338,1.8,2.7,83,0.00,,,0.00,WUHU216HW,2013-03-26 07:25:00,
2013-03-26 02:30:00,24.3,19.9,30.25,NW,315,1.1,2.7,83,0.00,,,0.00,WUHU216HW,2013-03-26 07:30:00,
2013-03-26 02:35:00,24.3,20.2,30.25,North,0,2.2,2.2,84,0.00,,,0.00,WUHU216HW,2013-03-26 07:35:00,
2013-03-26 02:40:00,24.5,20.3,30.25,West,270,1.8,2.2,84,0.00,,,0.00,WUHU216HW,2013-03-26 07:40:00,
2013-03-26 02:45:00,24.5,20.3,30.25,NW,315,2.5,4.5,84,0.00,,,0.00,WUHU216HW,2013-03-26 07:45:00,
2013-03-26 02:50:00,24.3,20.2,30.25,NNW,338,2.0,4.5,84,0.00,,,0.00,WUHU216HW,2013-03-26 07:50:00,
2013-03-26 02:55:00,24.1,20.0,30.25,North,0,3.1,3.1,84,0.00,,,0.00,WUHU216HW,2013-03-26 07:55:00,
2013-03-26 03:00:00,24.1,20.0,30.25,NNW,338,2.0,3.1,84,0.00,,,0.00,WUHU216HW,2013-03-26 08:00:00,
2013-03-26 03:05:00,24.1,20.0,30.25,NW,315,0.4,3.1,84,0.00,,,0.00,WUHU216HW,2013-03-26 08:05:00,
2013-03-26 03:10:00,23.8,19.6,30.24,NW,315,0.7,2.0,84,0.00,,,0.00,WUHU216HW,2013-03-26 08:10:00,
2013-03-26 03:15:00,23.8,19.9,30.24,NW,315,2.5,2.5,85,0.00,,,0.00,WUHU216HW,2013-03-26 08:15:00,
2013-03-26 03:20:00,23.8,19.9,30.24,WNW,293,1.8,2.9,85,0.00,,,0.00,WUHU216HW,2013-03-26 08:20:00,
2013-03-26 03:25:00,23.8,19.9,30.25,WSW,248,3.4,3.4,85,0.00,,,0.00,WUHU216HW,2013-03-26 08:25:00,
2013-03-26 03:30:00,23.8,19.9,30.25,NNW,338,2.5,3.4,85,0.00,,,0.00,WUHU216HW,2013-03-26 08:30:00,
2013-03-26 03:35:00,23.8,19.9,30.25,North,0,1.8,3.4,85,0.00,,,0.00,WUHU216HW,2013-03-26 08:35:00,
2013-03-26 03:40:00,23.8,19.9,30.25,NW,315,0.9,3.4,85,0.00,,,0.00,WUHU216HW,2013-03-26 08:40:00,
2013-03-26 03:45:00,23.8,19.9,30.25,NW,315,0.4,3.4,85,0.00,,,0.00,WUHU216HW,2013-03-26 08:45:00,
2013-03-26 03:50:00,23.8,19.9,30.25,NW,315,0.4,3.8,85,0.00,,,0.00,WUHU216HW,2013-03-26 08:50:00,
2013-03-26 03:55:00,23.8,19.9,30.25,NNW,338,1.8,3.8,85,0.00,,,0.00,WUHU216HW,2013-03-26 08:55:00,
2013-03-26 04:00:00,23.6,19.7,30.25,NW,315,0.4,1.8,85,0.00,,,0.00,WUHU216HW,2013-03-26 09:00:00,
2013-03-26 04:05:00,23.4,19.8,30.25,NW,315,1.1,1.8,86,0.00,,,0.00,WUHU216HW,2013-03-26 09:05:00,
2013-03-26 04:10:00,23.4,19.8,30.25,NNW,338,0.0,3.1,86,0.00,,,0.00,WUHU216HW,2013-03-26 09:10:00,
2013-03-26 04:15:00,23.4,19.8,30.25,NNW,338,0.4,3.1,86,0.00,,,0.00,WUHU216HW,2013-03-26 09:15:00,
2013-03-26 04:20:00,23.0,19.4,30.25,NW,315,0.0,1.3,86,0.00,,,0.00,WUHU216HW,2013-03-26 09:20:00,
2013-03-26 04:25:00,22.7,19.1,30.25,NW,315,0.7,1.1,86,0.00,,,0.00,WUHU216HW,2013-03-26 09:25:00,
2013-03-26 04:30:00,22.7,19.1,30.25,NNW,338,1.1,1.1,86,0.00,,,0.00,WUHU216HW,2013-03-26 09:30:00,
2013-03-26 04:35:00,22.7,19.1,30.25,NW,315,0.4,1.3,86,0.00,,,0.00,WUHU216HW,2013-03-26 09:35:00,
2013-03-26 04:40:00,22.7,19.1,30.25,West,270,0.2,1.3,86,0.00,,,0.00,WUHU216HW,2013-03-26 09:40:00,
2013-03-26 04:45:00,22.7,19.1,30.25,NNW,338,0.2,0.4,86,0.00,,,0.00,WUHU216HW,2013-03-26 09:45:00,
2013-03-26 04:50:00,22.7,19.4,30.25,NNW,338,0.0,1.8,87,0.00,,,0.00,WUHU216HW,2013-03-26 09:50:00,
2013-03-26 04:55:00,22.5,18.9,30.25,NW,315,0.4,1.8,86,0.00,,,0.00,WUHU216HW,2013-03-26 09:55:00,
2013-03-26 05:00:00,22.3,19.0,30.25,WNW,293,0.9,1.3,87,0.00,,,0.00,WUHU216HW,2013-03-26 10:00:00,
2013-03-26 05:05:00,22.3,19.0,30.25,WNW,293,0.9,2.2,87,0.00,,,0.00,WUHU216HW,2013-03-26 10:05:00,
2013-03-26 05:10:00,22.3,19.0,30.25,NNW,338,0.2,2.2,87,0.00,,,0.00,WUHU216HW,2013-03-26 10:10:00,
2013-03-26 05:15:00,22.3,19.0,30.25,NNW,338,2.0,2.5,87,0.00,,,0.00,WUHU216HW,2013-03-26 10:15:00,
2013-03-26 05:20:00,22.3,19.0,30.25,NW,315,0.4,2.5,87,0.00,,,0.00,WUHU216HW,2013-03-26 10:20:00,
2013-03-26 05:25:00,22.0,18.6,30.25,North,0,0.4,2.0,87,0.00,,,0.00,WUHU216HW,2013-03-26 10:25:00,
2013-03-26 05:30:00,22.0,18.6,30.25,NNW,338,0.2,0.9,87,0.00,,,0.00,WUHU216HW,2013-03-26 10:30:00,
2013-03-26 05:35:00,22.0,18.9,30.25,NW,315,0.4,0.9,88,0.00,,,0.00,WUHU216HW,2013-03-26 10:35:00,
2013-03-26 05:40:00,22.0,18.9,30.25,NNW,338,0.4,0.4,88,0.00,,,0.00,WUHU216HW,2013-03-26 10:40:00,
2013-03-26 05:45:00,21.8,18.7,30.25,NNW,338,1.1,1.1,88,0.00,,,0.00,WUHU216HW,2013-03-26 10:45:00,
2013-03-26 05:50:00,21.8,18.7,30.25,North,0,0.4,1.1,88,0.00,,,0.00,WUHU216HW,2013-03-26 10:50:00,
2013-03-26 05:55:00,21.6,18.5,30.25,WSW,248,0.9,1.1,88,0.00,,,0.00,WUHU216HW,2013-03-26 10:55:00,
2013-03-26 06:00:00,21.4,18.4,30.25,NNW,338,0.4,0.9,88,0.00,,,0.00,WUHU216HW,2013-03-26 11:00:00,
2013-03-26 06:05:00,21.4,18.4,30.25,NNE,23,0.2,2.9,88,0.00,,,0.00,WUHU216HW,2013-03-26 11:05:00,
2013-03-26 06:10:00,21.2,18.2,30.25,NW,315,0.4,2.9,88,0.00,,,0.00,WUHU216HW,2013-03-26 11:10:00,
2013-03-26 06:15:00,20.9,17.8,30.25,NNW,338,0.4,1.3,88,0.00,,,0.00,WUHU216HW,2013-03-26 11:15:00,
2013-03-26 06:20:00,20.5,17.5,30.25,NNW,338,0.9,1.3,88,0.00,,,0.00,WUHU216HW,2013-03-26 11:20:00,
2013-03-26 06:25:00,20.5,17.7,30.25,NW,315,0.4,0.9,89,0.00,,,0.00,WUHU216HW,2013-03-26 11:25:00,
2013-03-26 06:30:00,20.5,17.7,30.26,North,0,0.2,1.1,89,0.00,,,0.00,WUHU216HW,2013-03-26 11:30:00,
2013-03-26 06:35:00,20.5,17.7,30.26,NW,315,0.4,1.1,89,0.00,,,0.00,WUHU216HW,2013-03-26 11:35:00,
2013-03-26 06:40:00,20.7,18.2,30.26,NNW,338,2.5,2.5,90,0.00,,,0.00,WUHU216HW,2013-03-26 11:40:00,
2013-03-26 06:45:00,20.9,18.4,30.26,NNW,338,1.6,2.5,90,0.00,,,0.00,WUHU216HW,2013-03-26 11:45:00,
2013-03-26 06:50:00,21.1,18.5,30.26,NNW,338,0.4,1.6,90,0.00,,,0.00,WUHU216HW,2013-03-26 11:50:00,
2013-03-26 06:55:00,20.9,18.4,30.27,WNW,293,1.3,1.6,90,0.00,,,0.00,WUHU216HW,2013-03-26 11:55:00,
2013-03-26 07:00:00,21.1,18.5,30.27,NNW,338,0.0,1.6,90,0.00,,,0.00,WUHU216HW,2013-03-26 12:00:00,
2013-03-26 07:05:00,21.2,18.7,30.27,NNW,338,0.2,3.1,90,0.00,,,0.00,WUHU216HW,2013-03-26 12:05:00,
2013-03-26 07:10:00,21.2,18.7,30.27,NW,315,0.7,3.1,90,0.00,,,0.00,WUHU216HW,2013-03-26 12:10:00,
2013-03-26 07:15:00,21.2,18.7,30.27,NNE,23,1.8,3.4,90,0.00,,,0.00,WUHU216HW,2013-03-26 12:15:00,
2013-03-26 07:20:00,21.2,18.7,30.27,North,0,0.4,3.4,90,0.00,,,0.00,WUHU216HW,2013-03-26 12:20:00,
2013-03-26 07:25:00,21.2,18.7,30.27,West,270,2.2,2.2,90,0.00,,,0.00,WUHU216HW,2013-03-26 12:25:00,
2013-03-26 07:30:00,21.6,19.1,30.27,SSW,203,0.4,2.5,90,0.00,,,0.00,WUHU216HW,2013-03-26 12:30:00,
2013-03-26 07:35:00,21.6,19.1,30.28,NNW,338,1.3,2.5,90,0.00,,,0.00,WUHU216HW,2013-03-26 12:35:00,
2013-03-26 07:40:00,21.8,19.3,30.28,NNW,338,1.1,2.2,90,0.00,,,0.00,WUHU216HW,2013-03-26 12:40:00,
2013-03-26 07:45:00,22.5,20.0,30.28,NW,315,1.3,2.5,90,0.00,,,0.00,WUHU216HW,2013-03-26 12:45:00,
2013-03-26 07:50:00,23.0,20.3,30.28,NW,315,1.3,2.5,89,0.00,,,0.00,WUHU216HW,2013-03-26 12:50:00,
2013-03-26 07:55:00,23.8,20.7,30.28,North,0,1.8,2.5,88,0.00,,,0.00,WUHU216HW,2013-03-26 12:55:00,
2013-03-26 08:00:00,23.9,20.9,30.29,WSW,248,1.1,2.5,88,0.00,,,0.00,WUHU216HW,2013-03-26 13:00:00,
2013-03-26 08:05:00,24.3,21.0,30.29,NNW,338,1.1,1.8,87,0.00,,,0.00,WUHU216HW,2013-03-26 13:05:00,
2013-03-26 08:10:00,24.5,20.9,30.29,NNW,338,0.4,1.6,86,0.00,,,0.00,WUHU216HW,2013-03-26 13:10:00,
2013-03-26 08:15:00,24.3,20.4,30.30,NNW,338,2.7,2.7,85,0.00,,,0.00,WUHU216HW,2013-03-26 13:15:00,
2013-03-26 08:20:00,24.8,21.0,30.30,NNW,338,0.9,2.7,85,0.00,,,0.00,WUHU216HW,2013-03-26 13:20:00,
2013-03-26 08:25:00,25.6,21.7,30.30,NNW,338,1.8,2.7,85,0.00,,,0.00,WUHU216HW,2013-03-26 13:25:00,
2013-03-26 08:30:00,26.3,21.8,30.30,NNW,338,2.2,2.2,83,0.00,,,0.00,WUHU216HW,2013-03-26 13:30:00,
2013-03-26 08:35:00,26.6,22.2,30.30,West,270,2.2,2.2,83,0.00,,,0.00,WUHU216HW,2013-03-26 13:35:00,
2013-03-26 08:40:00,26.8,22.0,30.30,North,0,0.2,4.0,82,0.00,,,0.00,WUHU216HW,2013-03-26 13:40:00,
2013-03-26 08:45:00,27.4,22.2,30.30,NNW,338,2.0,4.0,81,0.00,,,0.00,WUHU216HW,2013-03-26 13:45:00,
2013-03-26 08:50:00,27.7,22.6,30.30,East,90,2.5,2.5,81,0.00,,,0.00,WUHU216HW,2013-03-26 13:50:00,
2013-03-26 08:55:00,28.1,22.4,30.31,NW,315,3.6,6.5,79,0.00,,,0.00,WUHU216HW,2013-03-26 13:55:00,
2013-03-26 09:00:00,28.3,22.6,30.31,NW,315,5.8,6.5,79,0.00,,,0.00,WUHU216HW,2013-03-26 14:00:00,
2013-03-26 09:05:00,28.6,23.0,30.31,NW,315,1.3,5.8,79,0.00,,,0.00,WUHU216HW,2013-03-26 14:05:00,
2013-03-26 09:10:00,28.8,22.5,30.31,NNW,338,4.5,5.8,77,0.00,,,0.00,WUHU216HW,2013-03-26 14:10:00,
2013-03-26 09:15:00,28.6,22.3,30.32,NW,315,2.0,4.5,77,0.00,,,0.00,WUHU216HW,2013-03-26 14:15:00,
2013-03-26 09:20:00,29.2,22.9,30.32,NNW,338,1.8,4.5,77,0.00,,,0.00,WUHU216HW,2013-03-26 14:20:00,
2013-03-26 09:25:00,29.9,22.9,30.32,NW,315,2.5,2.5,75,0.00,,,0.00,WUHU216HW,2013-03-26 14:25:00,
2013-03-26 09:30:00,29.7,23.1,30.32,NNW,338,5.4,5.4,76,0.00,,,0.00,WUHU216HW,2013-03-26 14:30:00,
2013-03-26 09:35:00,29.9,23.2,30.32,WSW,248,0.4,5.4,76,0.00,,,0.00,WUHU216HW,2013-03-26 14:35:00,
2013-03-26 09:40:00,31.3,23.9,30.32,North,0,3.6,3.6,74,0.00,,,0.00,WUHU216HW,2013-03-26 14:40:00,
2013-03-26 09:45:00,31.3,23.3,30.32,West,270,1.1,3.6,72,0.00,,,0.00,WUHU216HW,2013-03-26 14:45:00,
2013-03-26 09:50:00,31.7,24.0,30.32,NW,315,3.4,3.6,73,0.00,,,0.00,WUHU216HW,2013-03-26 14:50:00,
2013-03-26 09:55:00,32.0,24.0,30.32,NNW,338,4.5,4.5,72,0.00,,,0.00,WUHU216HW,2013-03-26 14:55:00,
2013-03-26 10:00:00,32.0,24.0,30.32,North,0,1.8,4.5,72,0.00,,,0.00,WUHU216HW,2013-03-26 15:00:00,
2013-03-26 10:05:00,33.1,24.7,30.32,NW,315,1.3,4.5,71,0.00,,,0.00,WUHU216HW,2013-03-26 15:05:00,
2013-03-26 10:10:00,33.3,24.6,30.32,NW,315,2.5,3.6,70,0.00,,,0.00,WUHU216HW,2013-03-26 15:10:00,
2013-03-26 10:15:00,32.9,24.2,30.32,NNW,338,1.8,4.3,70,0.00,,,0.00,WUHU216HW,2013-03-26 15:15:00,
2013-03-26 10:20:00,33.5,24.3,30.32,NNW,338,1.8,4.3,69,0.00,,,0.00,WUHU216HW,2013-03-26 15:20:00,
2013-03-26 10:25:00,33.5,23.9,30.32,North,0,1.1,2.7,68,0.00,,,0.00,WUHU216HW,2013-03-26 15:25:00,
2013-03-26 10:30:00,33.3,23.9,30.32,NW,315,3.4,3.8,68,0.00,,,0.00,WUHU216HW,2013-03-26 15:30:00,
2013-03-26 10:35:00,33.5,24.3,30.32,NNW,338,0.2,4.5,69,0.00,,,0.00,WUHU216HW,2013-03-26 15:35:00,
2013-03-26 10:40:00,33.5,23.9,30.32,NW,315,0.7,4.5,68,0.00,,,0.00,WUHU216HW,2013-03-26 15:40:00,
2013-03-26 10:45:00,34.0,24.5,30.32,North,0,1.3,3.6,68,0.00,,,0.00,WUHU216HW,2013-03-26 15:45:00,
2013-03-26 10:50:00,34.2,24.3,30.33,NNW,338,2.0,3.1,67,0.00,,,0.00,WUHU216HW,2013-03-26 15:50:00,
2013-03-26 10:55:00,34.9,25.0,30.33,NW,315,1.8,3.1,67,0.00,,,0.00,WUHU216HW,2013-03-26 15:55:00,
2013-03-26 11:00:00,34.9,24.3,30.33,NNW,338,1.1,1.8,65,0.00,,,0.00,WUHU216HW,2013-03-26 16:00:00,
2013-03-26 11:05:00,34.9,24.3,30.33,NNE,23,1.8,2.5,65,0.00,,,0.00,WUHU216HW,2013-03-26 16:05:00,
2013-03-26 11:10:00,36.5,25.1,30.33,NNE,23,0.9,2.5,63,0.00,,,0.00,WUHU216HW,2013-03-26 16:10:00,
2013-03-26 11:15:00,36.0,24.0,30.33,NNW,338,3.8,3.8,61,0.00,,,0.00,WUHU216HW,2013-03-26 16:15:00,
2013-03-26 11:20:00,36.0,24.0,30.33,NNE,23,3.1,3.8,61,0.00,,,0.00,WUHU216HW,2013-03-26 16:20:00,
2013-03-26 11:25:00,36.0,24.0,30.33,NNW,338,2.2,3.8,61,0.00,,,0.00,WUHU216HW,2013-03-26 16:25:00,
2013-03-26 11:30:00,35.6,23.9,30.33,NNW,338,2.7,3.8,62,0.00,,,0.00,WUHU216HW,2013-03-26 16:30:00,
2013-03-26 11:35:00,36.4,23.9,30.33,North,0,3.8,3.8,60,0.00,,,0.00,WUHU216HW,2013-03-26 16:35:00,
2013-03-26 11:40:00,36.4,24.2,30.33,NNW,338,2.5,3.8,61,0.00,,,0.00,WUHU216HW,2013-03-26 16:40:00,
2013-03-26 11:45:00,36.4,24.2,30.33,NNW,338,2.5,2.9,61,0.00,,,0.00,WUHU216HW,2013-03-26 16:45:00,
2013-03-26 11:50:00,36.4,24.2,30.33,NNW,338,2.5,2.5,61,0.00,,,0.00,WUHU216HW,2013-03-26 16:50:00,
2013-03-26 11:55:00,38.9,23.9,30.32,NNW,338,3.4,3.4,55,0.00,,,0.00,WUHU216HW,2013-03-26 16:55:00,
2013-03-26 12:00:00,38.3,24.0,30.32,NNE,23,3.4,3.4,56,0.00,,,0.00,WUHU216HW,2013-03-26 17:00:00,
2013-03-26 12:05:00,38.2,24.2,30.32,NNW,338,2.2,3.4,57,0.00,,,0.00,WUHU216HW,2013-03-26 17:05:00,
2013-03-26 12:10:00,39.1,23.3,30.32,WNW,293,2.9,2.9,53,0.00,,,0.00,WUHU216HW,2013-03-26 17:10:00,
2013-03-26 12:15:00,39.2,24.3,30.32,WSW,248,2.5,2.9,55,0.00,,,0.00,WUHU216HW,2013-03-26 17:15:00,
2013-03-26 12:20:00,39.4,23.6,30.32,WSW,248,3.8,3.8,53,0.00,,,0.00,WUHU216HW,2013-03-26 17:20:00,
2013-03-26 12:25:00,39.1,23.3,30.32,SSW,203,2.5,3.8,53,0.00,,,0.00,WUHU216HW,2013-03-26 17:25:00,
2013-03-26 12:30:00,39.4,23.1,30.32,West,270,4.5,4.5,52,0.00,,,0.00,WUHU216HW,2013-03-26 17:30:00,
2013-03-26 12:35:00,39.2,23.4,30.32,SSW,203,0.9,4.5,53,0.00,,,0.00,WUHU216HW,2013-03-26 17:35:00,
2013-03-26 12:40:00,38.5,22.3,30.32,SW,225,4.0,4.9,52,0.00,,,0.00,WUHU216HW,2013-03-26 17:40:00,
2013-03-26 12:45:00,38.5,22.3,30.32,West,270,4.0,4.9,52,0.00,,,0.00,WUHU216HW,2013-03-26 17:45:00,
2013-03-26 12:50:00,38.9,22.7,30.32,West,270,3.4,4.0,52,0.00,,,0.00,WUHU216HW,2013-03-26 17:50:00,
2013-03-26 12:55:00,40.1,23.4,30.32,WSW,248,3.4,4.0,51,0.00,,,0.00,WUHU216HW,2013-03-26 17:55:00,
2013-03-26 13:00:00,39.6,22.5,30.32,ESE,113,2.7,3.4,50,0.00,,,0.00,WUHU216HW,2013-03-26 18:00:00,
2013-03-26 13:05:00,38.2,22.1,30.32,NNE,23,2.9,3.4,52,0.00,,,0.00,WUHU216HW,2013-03-26 18:05:00,
2013-03-26 13:10:00,37.1,21.5,30.32,WSW,248,3.6,3.6,53,0.00,,,0.00,WUHU216HW,2013-03-26 18:10:00,
2013-03-26 13:16:00,38.5,23.7,30.31,North,0,2.2,3.6,55,0.00,,,0.00,WUHU216HW,2013-03-26 18:16:00,
2013-03-26 13:21:00,40.5,24.1,30.31,North,0,3.4,3.6,52,0.00,,,0.00,WUHU216HW,2013-03-26 18:21:00,
2013-03-26 13:26:00,40.3,24.0,30.31,NW,315,1.1,3.4,52,0.00,,,0.00,WUHU216HW,2013-03-26 18:26:00,
2013-03-26 13:30:00,40.7,23.0,30.31,North,0,2.7,2.7,49,0.00,,,0.00,WUHU216HW,2013-03-26 18:30:00,
2013-03-26 13:35:00,40.7,23.4,30.31,South,180,1.3,2.7,50,0.00,,,0.00,WUHU216HW,2013-03-26 18:35:00,
2013-03-26 13:41:00,40.9,22.6,30.31,WSW,248,6.7,6.7,48,0.00,,,0.00,WUHU216HW,2013-03-26 18:41:00,
2013-03-26 13:46:00,40.3,22.1,30.30,SSW,203,0.9,6.7,48,0.00,,,0.00,WUHU216HW,2013-03-26 18:46:00,
2013-03-26 13:51:00,40.0,20.2,30.30,SW,225,4.9,5.4,45,0.00,,,0.00,WUHU216HW,2013-03-26 18:51:00,
2013-03-26 13:56:00,39.2,18.5,30.30,SSW,203,3.6,4.9,43,0.00,,,0.00,WUHU216HW,2013-03-26 18:56:00,
2013-03-26 14:01:00,38.9,19.7,30.30,SSW,203,2.7,6.9,46,0.00,,,0.00,WUHU216HW,2013-03-26 19:01:00,
2013-03-26 14:06:00,38.9,19.7,30.30,SW,225,5.1,6.9,46,0.00,,,0.00,WUHU216HW,2013-03-26 19:06:00,
2013-03-26 14:11:00,39.2,21.1,30.30,SSW,203,4.7,5.1,48,0.00,,,0.00,WUHU216HW,2013-03-26 19:11:00,
2013-03-26 14:16:00,39.6,21.4,30.30,WSW,248,3.1,5.1,48,0.00,,,0.00,WUHU216HW,2013-03-26 19:16:00,
2013-03-26 14:21:00,39.8,22.2,30.30,SW,225,3.1,4.9,49,0.00,,,0.00,WUHU216HW,2013-03-26 19:21:00,
2013-03-26 14:26:00,41.4,23.0,30.30,South,180,4.7,4.7,48,0.00,,,0.00,WUHU216HW,2013-03-26 19:26:00,
2013-03-26 14:31:00,41.2,23.4,30.30,NNW,338,1.1,5.4,49,0.00,,,0.00,WUHU216HW,2013-03-26 19:31:00,
2013-03-26 14:36:00,41.9,22.0,30.30,SW,225,1.3,5.4,45,0.00,,,0.00,WUHU216HW,2013-03-26 19:36:00,
2013-03-26 14:41:00,41.4,22.1,30.30,West,270,2.0,2.0,46,0.00,,,0.00,WUHU216HW,2013-03-26 19:41:00,
2013-03-26 14:46:00,41.9,22.5,30.29,SW,225,2.0,2.7,46,0.00,,,0.00,WUHU216HW,2013-03-26 19:46:00,
2013-03-26 14:51:00,42.1,23.2,30.29,WSW,248,1.6,2.7,47,0.00,,,0.00,WUHU216HW,2013-03-26 19:51:00,
2013-03-26 14:56:00,42.1,22.1,30.29,WSW,248,4.0,4.0,45,0.00,,,0.00,WUHU216HW,2013-03-26 19:56:00,
2013-03-26 15:01:00,42.8,22.9,30.29,SSW,203,4.0,4.3,45,0.00,,,0.00,WUHU216HW,2013-03-26 20:01:00,
2013-03-26 15:06:00,42.5,22.5,30.29,SSW,203,4.7,4.7,45,0.00,,,0.00,WUHU216HW,2013-03-26 20:06:00,
2013-03-26 15:11:00,41.8,21.3,30.29,South,180,3.8,4.7,44,0.00,,,0.00,WUHU216HW,2013-03-26 20:11:00,
2013-03-26 15:16:00,42.1,22.1,30.28,NNW,338,2.7,4.7,45,0.00,,,0.00,WUHU216HW,2013-03-26 20:16:00,
2013-03-26 15:21:00,42.7,22.7,30.29,SSW,203,1.1,3.1,45,0.00,,,0.00,WUHU216HW,2013-03-26 20:21:00,
2013-03-26 15:26:00,43.2,22.7,30.28,NNW,338,1.8,2.7,44,0.00,,,0.00,WUHU216HW,2013-03-26 20:26:00,
2013-03-26 15:31:00,42.7,22.1,30.28,SSW,203,4.3,4.3,44,0.00,,,0.00,WUHU216HW,2013-03-26 20:31:00,
2013-03-26 15:36:00,41.2,20.8,30.28,SSW,203,3.4,4.3,44,0.00,,,0.00,WUHU216HW,2013-03-26 20:36:00,
2013-03-26 15:41:00,41.4,21.5,30.28,WNW,293,1.1,4.3,45,0.00,,,0.00,WUHU216HW,2013-03-26 20:41:00,
2013-03-26 15:46:00,43.2,23.2,30.28,NNW,338,1.1,3.8,45,0.00,,,0.00,WUHU216HW,2013-03-26 20:46:00,
2013-03-26 15:51:00,43.6,23.5,30.28,SSW,203,2.5,3.8,45,0.00,,,0.00,WUHU216HW,2013-03-26 20:51:00,
2013-03-26 15:56:00,44.5,23.2,30.28,SSW,203,4.0,4.0,43,0.00,,,0.00,WUHU216HW,2013-03-26 20:56:00,
2013-03-26 16:01:00,44.1,21.9,30.27,SSW,203,2.9,4.0,41,0.00,,,0.00,WUHU216HW,2013-03-26 21:01:00,
2013-03-26 16:06:00,43.4,22.2,30.27,SW,225,2.7,2.9,43,0.00,,,0.00,WUHU216HW,2013-03-26 21:06:00,
2013-03-26 16:11:00,43.6,22.4,30.27,SW,225,4.0,4.0,43,0.00,,,0.00,WUHU216HW,2013-03-26 21:11:00,
2013-03-26 16:16:00,42.8,22.3,30.27,SSW,203,3.6,4.0,44,0.00,,,0.00,WUHU216HW,2013-03-26 21:16:00,
2013-03-26 16:21:00,43.6,23.5,30.27,South,180,2.0,4.0,45,0.00,,,0.00,WUHU216HW,2013-03-26 21:21:00,
2013-03-26 16:26:00,42.1,22.7,30.27,SSW,203,3.4,3.6,46,0.00,,,0.00,WUHU216HW,2013-03-26 21:26:00,
2013-03-26 16:31:00,43.4,22.2,30.27,West,270,4.0,4.0,43,0.00,,,0.00,WUHU216HW,2013-03-26 21:31:00,
2013-03-26 16:36:00,44.6,23.4,30.26,West,270,1.8,4.0,43,0.00,,,0.00,WUHU216HW,2013-03-26 21:36:00,
2013-03-26 16:41:00,42.8,21.8,30.26,SSW,203,4.7,4.7,43,0.00,,,0.00,WUHU216HW,2013-03-26 21:41:00,
2013-03-26 16:46:00,43.4,22.2,30.26,West,270,1.3,4.7,43,0.00,,,0.00,WUHU216HW,2013-03-26 21:46:00,
2013-03-26 16:51:00,44.3,23.0,30.26,NNW,338,1.6,4.7,43,0.00,,,0.00,WUHU216HW,2013-03-26 21:51:00,
2013-03-26 16:57:00,45.0,23.8,30.25,SSW,203,3.4,3.4,43,0.00,,,0.00,WUHU216HW,2013-03-26 21:57:00,
2013-03-26 17:02:00,44.3,22.5,30.25,SSW,203,2.7,3.4,42,0.00,,,0.00,WUHU216HW,2013-03-26 22:02:00,
2013-03-26 17:07:00,43.4,22.2,30.25,South,180,8.1,8.1,43,0.00,,,0.00,WUHU216HW,2013-03-26 22:07:00,
2013-03-26 17:12:00,42.7,22.7,30.25,SW,225,3.4,8.1,45,0.00,,,0.00,WUHU216HW,2013-03-26 22:12:00,
2013-03-26 17:17:00,41.8,21.3,30.25,SSW,203,6.7,6.7,44,0.00,,,0.00,WUHU216HW,2013-03-26 22:17:00,
2013-03-26 17:22:00,42.1,22.1,30.25,SSW,203,6.3,6.7,45,0.00,,,0.00,WUHU216HW,2013-03-26 22:22:00,
2013-03-26 17:27:00,41.9,22.5,30.25,South,180,8.5,8.5,46,0.00,,,0.00,WUHU216HW,2013-03-26 22:27:00,
2013-03-26 17:32:00,42.1,21.6,30.25,SSW,203,2.2,8.5,44,0.00,,,0.00,WUHU216HW,2013-03-26 22:32:00,
2013-03-26 17:37:00,42.5,22.5,30.25,SW,225,2.5,8.5,45,0.00,,,0.00,WUHU216HW,2013-03-26 22:37:00,
2013-03-26 17:42:00,40.5,21.2,30.25,SW,225,4.9,4.9,46,0.00,,,0.00,WUHU216HW,2013-03-26 22:42:00,
2013-03-26 17:47:00,41.4,22.1,30.25,SSW,203,2.5,5.4,46,0.00,,,0.00,WUHU216HW,2013-03-26 22:47:00,
2013-03-26 17:52:00,42.5,22.5,30.25,South,180,3.4,5.4,45,0.00,,,0.00,WUHU216HW,2013-03-26 22:52:00,
2013-03-26 17:57:00,42.3,22.3,30.25,SW,225,3.1,3.4,45,0.00,,,0.00,WUHU216HW,2013-03-26 22:57:00,
2013-03-26 18:02:00,40.9,21.0,30.25,South,180,3.4,3.4,45,0.00,,,0.00,WUHU216HW,2013-03-26 23:02:00,
2013-03-26 18:07:00,41.2,21.3,30.24,WSW,248,3.4,4.7,45,0.00,,,0.00,WUHU216HW,2013-03-26 23:07:00,
2013-03-26 18:12:00,40.3,21.1,30.24,SSW,203,5.6,5.6,46,0.00,,,0.00,WUHU216HW,2013-03-26 23:12:00,
2013-03-26 18:17:00,39.4,20.3,30.24,WNW,293,1.1,5.6,46,0.00,,,0.00,WUHU216HW,2013-03-26 23:17:00,
2013-03-26 18:22:00,40.5,21.2,30.25,WSW,248,4.0,4.0,46,0.00,,,0.00,WUHU216HW,2013-03-26 23:22:00,
2013-03-26 18:27:00,39.8,21.1,30.25,SW,225,2.0,4.0,47,0.00,,,0.00,WUHU216HW,2013-03-26 23:27:00,
2013-03-26 18:32:00,39.6,21.4,30.25,South,180,6.3,6.3,48,0.00,,,0.00,WUHU216HW,2013-03-26 23:32:00,
2013-03-26 18:37:00,38.0,20.0,30.25,SSW,203,2.2,6.3,48,0.00,,,0.00,WUHU216HW,2013-03-26 23:37:00,
2013-03-26 18:42:00,36.7,19.9,30.24,WSW,248,3.1,5.4,50,0.00,,,0.00,WUHU216HW,2013-03-26 23:42:00,
2013-03-26 18:47:00,36.2,20.3,30.25,SSW,203,0.7,3.1,52,0.00,,,0.00,WUHU216HW,2013-03-26 23:47:00,
2013-03-26 18:52:00,35.5,20.4,30.25,SSW,203,2.5,3.1,54,0.00,,,0.00,WUHU216HW,2013-03-26 23:52:00,
2013-03-26 18:57:00,35.3,20.3,30.25,West,270,1.1,2.5,54,0.00,,,0.00,WUHU216HW,2013-03-26 23:57:00,
2013-03-26 19:02:00,35.3,20.7,30.25,WSW,248,0.4,2.5,55,0.00,,,0.00,WUHU216HW,2013-03-27 00:02:00,
2013-03-26 19:07:00,34.9,20.8,30.25,SW,225,1.8,1.8,56,0.00,,,0.00,WUHU216HW,2013-03-27 00:07:00,
2013-03-26 19:12:00,34.6,20.4,30.25,SW,225,1.3,1.8,56,0.00,,,0.00,WUHU216HW,2013-03-27 00:12:00,
2013-03-26 19:17:00,34.4,20.7,30.25,SW,225,2.5,2.5,57,0.00,,,0.00,WUHU216HW,2013-03-27 00:17:00,
2013-03-26 19:22:00,34.0,20.4,30.25,SSW,203,1.6,2.5,57,0.00,,,0.00,WUHU216HW,2013-03-27 00:22:00,
2013-03-26 19:27:00,33.7,20.4,30.25,SSW,203,1.1,2.5,58,0.00,,,0.00,WUHU216HW,2013-03-27 00:27:00,
2013-03-26 19:32:00,33.3,20.1,30.24,SSW,203,1.1,1.6,58,0.00,,,0.00,WUHU216HW,2013-03-27 00:32:00,
2013-03-26 19:37:00,32.9,20.6,30.24,SSW,203,1.8,1.8,60,0.00,,,0.00,WUHU216HW,2013-03-27 00:37:00,
2013-03-26 19:42:00,32.8,20.8,30.25,SSW,203,1.1,1.8,61,0.00,,,0.00,WUHU216HW,2013-03-27 00:42:00,
2013-03-26 19:47:00,32.4,20.9,30.24,SSW,203,0.9,1.8,62,0.00,,,0.00,WUHU216HW,2013-03-27 00:47:00,
2013-03-26 19:52:00,32.2,20.7,30.24,SSW,203,1.1,1.1,62,0.00,,,0.00,WUHU216HW,2013-03-27 00:52:00,
2013-03-26 19:58:00,32.0,20.5,30.24,SSW,203,1.1,1.1,62,0.00,,,0.00,WUHU216HW,2013-03-27 00:58:00,
2013-03-26 20:03:00,31.7,20.9,30.25,SSW,203,1.6,1.6,64,0.00,,,0.00,WUHU216HW,2013-03-27 01:03:00,
2013-03-26 20:08:00,31.3,19.8,30.25,SSE,158,1.6,2.5,62,0.00,,,0.00,WUHU216HW,2013-03-27 01:08:00,
2013-03-26 20:13:00,31.0,19.4,30.24,South,180,1.6,2.5,62,0.00,,,0.00,WUHU216HW,2013-03-27 01:13:00,
2013-03-26 20:18:00,31.0,20.5,30.25,South,180,3.1,3.1,65,0.00,,,0.00,WUHU216HW,2013-03-27 01:18:00,
2013-03-26 20:23:00,31.0,20.9,30.24,SSW,203,2.2,3.1,66,0.00,,,0.00,WUHU216HW,2013-03-27 01:23:00,
2013-03-26 20:28:00,31.0,20.9,30.24,SSW,203,1.8,3.1,66,0.00,,,0.00,WUHU216HW,2013-03-27 01:28:00,
2013-03-26 20:33:00,30.8,20.7,30.24,SSW,203,2.2,2.2,66,0.00,,,0.00,WUHU216HW,2013-03-27 01:33:00,
2013-03-26 20:38:00,30.6,20.5,30.24,South,180,2.2,2.2,66,0.00,,,0.00,WUHU216HW,2013-03-27 01:38:00,
2013-03-26 20:43:00,30.4,20.7,30.24,SSW,203,1.3,2.2,67,0.00,,,0.00,WUHU216HW,2013-03-27 01:43:00,
2013-03-26 20:48:00,30.1,20.0,30.24,South,180,1.8,2.2,66,0.00,,,0.00,WUHU216HW,2013-03-27 01:48:00,
2013-03-26 20:53:00,30.1,20.0,30.24,South,180,1.1,2.2,66,0.00,,,0.00,WUHU216HW,2013-03-27 01:53:00,
2013-03-26 20:58:00,29.9,20.5,30.24,SSW,203,1.1,1.8,68,0.00,,,0.00,WUHU216HW,2013-03-27 01:58:00,
2013-03-26 21:03:00,29.9,21.2,30.25,SSW,203,1.6,1.6,70,0.00,,,0.00,WUHU216HW,2013-03-27 02:03:00,
2013-03-26 21:08:00,29.7,21.2,30.25,SSW,203,1.8,1.8,70,0.00,,,0.00,WUHU216HW,2013-03-27 02:08:00,
2013-03-26 21:13:00,29.7,21.2,30.25,SSW,203,0.9,1.8,70,0.00,,,0.00,WUHU216HW,2013-03-27 02:13:00,
2013-03-26 21:18:00,29.5,21.2,30.25,SW,225,1.6,1.8,71,0.00,,,0.00,WUHU216HW,2013-03-27 02:18:00,
2013-03-26 21:23:00,29.7,21.8,30.25,SW,225,1.8,1.8,72,0.00,,,0.00,WUHU216HW,2013-03-27 02:23:00,
2013-03-26 21:28:00,29.9,22.0,30.26,SSW,203,2.5,2.5,72,0.00,,,0.00,WUHU216HW,2013-03-27 02:28:00,
2013-03-26 21:33:00,29.9,21.6,30.26,SSW,203,0.9,2.5,71,0.00,,,0.00,WUHU216HW,2013-03-27 02:33:00,
2013-03-26 21:38:00,29.5,21.6,30.26,SW,225,0.9,1.3,72,0.00,,,0.00,WUHU216HW,2013-03-27 02:38:00,
2013-03-26 21:43:00,29.5,21.2,30.26,SW,225,1.3,1.3,71,0.00,,,0.00,WUHU216HW,2013-03-27 02:43:00,
2013-03-26 21:48:00,29.5,21.2,30.26,SW,225,0.9,1.3,71,0.00,,,0.00,WUHU216HW,2013-03-27 02:48:00,
2013-03-26 21:53:00,29.5,21.2,30.26,SSW,203,1.1,1.3,71,0.00,,,0.00,WUHU216HW,2013-03-27 02:53:00,
2013-03-26 21:58:00,29.3,21.4,30.26,SW,225,1.1,1.8,72,0.00,,,0.00,WUHU216HW,2013-03-27 02:58:00,
2013-03-26 22:03:00,29.2,21.2,30.27,WSW,248,1.1,1.8,72,0.00,,,0.00,WUHU216HW,2013-03-27 03:03:00,
2013-03-26 22:08:00,29.2,21.2,30.26,SSW,203,0.4,1.1,72,0.00,,,0.00,WUHU216HW,2013-03-27 03:08:00,
2013-03-26 22:13:00,28.8,20.9,30.26,SW,225,0.4,1.1,72,0.00,,,0.00,WUHU216HW,2013-03-27 03:13:00,
2013-03-26 22:18:00,28.6,21.1,30.27,SW,225,0.9,1.1,73,0.00,,,0.00,WUHU216HW,2013-03-27 03:18:00,
2013-03-26 22:23:00,28.6,20.8,30.26,WSW,248,0.0,1.1,72,0.00,,,0.00,WUHU216HW,2013-03-27 03:23:00,
2013-03-26 22:28:00,28.4,20.9,30.26,SW,225,0.9,1.1,73,0.00,,,0.00,WUHU216HW,2013-03-27 03:28:00,
2013-03-26 22:33:00,28.4,20.9,30.27,SW,225,0.0,0.9,73,0.00,,,0.00,WUHU216HW,2013-03-27 03:33:00,
2013-03-26 22:38:00,28.4,20.9,30.27,WSW,248,0.4,0.9,73,0.00,,,0.00,WUHU216HW,2013-03-27 03:38:00,
2013-03-26 22:43:00,27.9,19.7,30.26,West,270,0.0,0.4,71,0.00,,,0.00,WUHU216HW,2013-03-27 03:43:00,
2013-03-26 22:48:00,27.7,19.5,30.27,West,270,0.0,0.0,71,0.00,,,0.00,WUHU216HW,2013-03-27 03:48:00,
2013-03-26 22:53:00,27.5,19.7,30.27,West,270,0.0,0.0,72,0.00,,,0.00,WUHU216HW,2013-03-27 03:53:00,
2013-03-26 22:58:00,27.4,19.5,30.27,West,270,0.0,0.4,72,0.00,,,0.00,WUHU216HW,2013-03-27 03:58:00,
2013-03-26 23:00:00,27.4,19.5,30.26,West,270,0.0,0.4,72,0.00,,,0.00,WUHU216HW,2013-03-27 04:00:00,
2013-03-26 23:05:00,27.2,19.4,30.27,SW,225,0.4,0.4,72,0.00,,,0.00,WUHU216HW,2013-03-27 04:05:00,
2013-03-26 23:10:00,27.0,19.2,30.26,NW,315,0.0,0.4,72,0.00,,,0.00,WUHU216HW,2013-03-27 04:10:00,
2013-03-26 23:15:00,27.0,19.2,30.27,WNW,293,0.0,0.2,72,0.00,,,0.00,WUHU216HW,2013-03-27 04:15:00,
2013-03-26 23:20:00,27.0,19.4,30.27,WSW,248,0.0,0.4,73,0.00,,,0.00,WUHU216HW,2013-03-27 04:20:00,
2013-03-26 23:25:00,27.0,19.4,30.27,WNW,293,0.0,0.4,73,0.00,,,0.00,WUHU216HW,2013-03-27 04:25:00,
2013-03-26 23:30:00,27.0,19.4,30.26,WSW,248,0.0,0.2,73,0.00,,,0.00,WUHU216HW,2013-03-27 04:30:00,
2013-03-26 23:35:00,26.8,19.6,30.26,WSW,248,0.0,0.2,74,0.00,,,0.00,WUHU216HW,2013-03-27 04:35:00,
2013-03-26 23:40:00,26.8,19.3,30.26,SW,225,0.0,0.4,73,0.00,,,0.00,WUHU216HW,2013-03-27 04:40:00,
2013-03-26 23:45:00,26.5,18.6,30.26,West,270,0.0,0.4,72,0.00,,,0.00,WUHU216HW,2013-03-27 04:45:00,
2013-03-26 23:50:00,26.3,18.5,30.26,West,270,0.0,0.0,72,0.00,,,0.00,WUHU216HW,2013-03-27 04:50:00,
2013-03-26 23:55:00,25.9,18.1,30.26,West,270,0.0,0.0,72,0.00,,,0.00,WUHU216HW,2013-03-27 04:55:00,